Truckee, California
Current Conditions -  °F | °C
As of 1:15 AM on Sunday 26 Oct 2014 (Local Time) from KTRK Reporting Station
Overcast Overcast  
Wind Chill: 32°   Ceiling: 3400
Heat Index: 39°   Visibility: 10mi
Dew Point: 32°   Wind: 10mph
Humidity: 75%   Direction: 140°SE
Pressure: 30.14"   Gusts: NA
Location:  39.33°N, 120.21°W
Report Text: KTRK 260815Z AUTO 14009KT 10SM BKN034 OVC040 04/00 A3014 RMK AO2
Loading
Personal Weather Stations






























Interactive Weather Map
Tropical Storm Tracking
New forecast layout! Learn more

10-Day Weather Forecast

Advertisements
Track Severe Weather on mobile